SVA596 OERK-OMDB
Flight info
| Callsign | SVA596 |
|---|---|
| Flight time | 1h 25m |
| Altitude | 35000 |
| Route | RESAL T533 RAPMA DCT KUVSO DCT RIBOT M550 GOLGU M318 RURAL Q317 LORID |
| Aircraft | A320/M-SDE3FGHIRWY/LB1 |
Departure
| Time | 2026-04-26 15:01 |
|---|---|
| Airport | King Khalid International Airport (OERK) |
Arrival
| Time | 2026-04-26 16:26 |
|---|---|
| Airport | Dubai International Airport (OMDB) |
| Time | Latitude | Longitude | Altitude | Speed | Heading |
|---|---|---|---|---|---|
| 2026-04-26 14:31 | 24.96108 | 46.70362 | 2038 ft | 0 kts | 298° |
| 2026-04-26 14:50 | 24.96107 | 46.70364 | 2030 ft | 2 kts | 298° |
| 2026-04-26 14:50 | 24.96094 | 46.70390 | 2033 ft | 4 kts | 299° |
| 2026-04-26 14:50 | 24.96081 | 46.70416 | 2036 ft | 4 kts | 299° |
| 2026-04-26 14:51 | 24.96068 | 46.70442 | 2037 ft | 4 kts | 294° |
| 2026-04-26 14:51 | 24.96060 | 46.70469 | 2036 ft | 4 kts | 270° |
| 2026-04-26 14:51 | 24.96065 | 46.70492 | 2036 ft | 4 kts | 240° |
| 2026-04-26 14:51 | 24.96077 | 46.70516 | 2035 ft | 4 kts | 251° |
| 2026-04-26 14:52 | 24.96081 | 46.70544 | 2032 ft | 4 kts | 287° |
| 2026-04-26 14:52 | 24.96068 | 46.70565 | 2039 ft | 3 kts | 330° |
| 2026-04-26 14:52 | 24.96048 | 46.70577 | 2040 ft | 1 kts | 330° |
| 2026-04-26 14:52 | 24.96047 | 46.70577 | 2040 ft | 0 kts | 330° |
| 2026-04-26 14:55 | 24.96048 | 46.70577 | 2030 ft | 1 kts | 330° |
| 2026-04-26 14:55 | 24.96083 | 46.70555 | 2030 ft | 10 kts | 330° |
| 2026-04-26 14:55 | 24.96155 | 46.70509 | 2033 ft | 12 kts | 330° |
| 2026-04-26 14:56 | 24.96220 | 46.70468 | 2033 ft | 10 kts | 330° |
| 2026-04-26 14:56 | 24.96298 | 46.70418 | 2029 ft | 15 kts | 330° |
| 2026-04-26 14:56 | 24.96378 | 46.70423 | 2032 ft | 12 kts | 49° |
| 2026-04-26 14:56 | 24.96425 | 46.70499 | 2033 ft | 12 kts | 33° |
| 2026-04-26 14:57 | 24.96499 | 46.70468 | 2035 ft | 15 kts | 329° |
| 2026-04-26 14:57 | 24.96614 | 46.70395 | 2032 ft | 20 kts | 330° |
| 2026-04-26 14:57 | 24.96731 | 46.70321 | 2034 ft | 18 kts | 330° |
| 2026-04-26 14:57 | 24.96836 | 46.70255 | 2036 ft | 16 kts | 329° |
| 2026-04-26 14:58 | 24.96930 | 46.70206 | 2033 ft | 14 kts | 359° |
| 2026-04-26 14:58 | 24.96995 | 46.70270 | 2034 ft | 12 kts | 45° |
| 2026-04-26 14:58 | 24.97070 | 46.70249 | 2036 ft | 15 kts | 328° |
| 2026-04-26 14:58 | 24.97186 | 46.70175 | 2028 ft | 22 kts | 330° |
| 2026-04-26 14:59 | 24.97318 | 46.70090 | 2031 ft | 21 kts | 329° |
| 2026-04-26 14:59 | 24.97439 | 46.70014 | 2035 ft | 19 kts | 330° |
| 2026-04-26 14:59 | 24.97535 | 46.69973 | 2032 ft | 12 kts | 19° |
| 2026-04-26 14:59 | 24.97570 | 46.70019 | 2029 ft | 14 kts | 59° |
| 2026-04-26 15:00 | 24.97647 | 46.70164 | 2028 ft | 11 kts | 60° |
| 2026-04-26 15:00 | 24.97650 | 46.70223 | 2031 ft | 9 kts | 135° |
| 2026-04-26 15:00 | 24.97504 | 46.70317 | 2028 ft | 55 kts | 149° |
| 2026-04-26 15:00 | 24.96978 | 46.70649 | 2032 ft | 117 kts | 150° |
| 2026-04-26 15:01 | 24.96119 | 46.71192 | 2031 ft | 166 kts | 150° |
| 2026-04-26 15:01 | 24.95069 | 46.71853 | 2435 ft | 176 kts | 148° |
| 2026-04-26 15:01 | 24.94021 | 46.72551 | 3127 ft | 175 kts | 142° |
| 2026-04-26 15:01 | 24.93046 | 46.73396 | 3558 ft | 186 kts | 139° |
| 2026-04-26 15:02 | 24.91998 | 46.74368 | 3718 ft | 209 kts | 140° |
| 2026-04-26 15:02 | 24.90827 | 46.75467 | 3904 ft | 233 kts | 140° |
| 2026-04-26 15:02 | 24.89536 | 46.76677 | 4255 ft | 252 kts | 140° |
| 2026-04-26 15:02 | 24.88177 | 46.77943 | 4902 ft | 258 kts | 141° |
| 2026-04-26 15:03 | 24.86665 | 46.79018 | 5611 ft | 262 kts | 152° |
| 2026-04-26 15:03 | 24.85046 | 46.79969 | 6314 ft | 266 kts | 154° |
| 2026-04-26 15:03 | 24.83388 | 46.80915 | 7018 ft | 269 kts | 154° |
| 2026-04-26 15:03 | 24.81715 | 46.81866 | 7711 ft | 272 kts | 154° |
| 2026-04-26 15:04 | 24.80013 | 46.82830 | 8350 ft | 278 kts | 156° |
| 2026-04-26 15:04 | 24.78187 | 46.83535 | 9037 ft | 280 kts | 168° |
| 2026-04-26 15:04 | 24.76272 | 46.84055 | 9685 ft | 286 kts | 168° |
| 2026-04-26 15:04 | 24.74325 | 46.84592 | 10279 ft | 291 kts | 168° |
| 2026-04-26 15:05 | 24.72290 | 46.85157 | 10514 ft | 313 kts | 168° |
| 2026-04-26 15:05 | 24.71597 | 46.85350 | 10560 ft | 320 kts | 168° |
| 2026-04-26 15:05 | 24.67770 | 46.86410 | 10764 ft | 356 kts | 168° |
| 2026-04-26 15:05 | 24.65311 | 46.87090 | 11066 ft | 369 kts | 168° |
| 2026-04-26 15:06 | 24.62832 | 46.87794 | 11551 ft | 375 kts | 166° |
| 2026-04-26 15:06 | 24.60319 | 46.88641 | 12140 ft | 379 kts | 164° |
| 2026-04-26 15:06 | 24.57811 | 46.89589 | 12713 ft | 384 kts | 163° |
| 2026-04-26 15:06 | 24.55282 | 46.90598 | 13249 ft | 389 kts | 162° |
| 2026-04-26 15:07 | 24.50154 | 46.92661 | 14315 ft | 396 kts | 163° |
| 2026-04-26 15:07 | 24.48428 | 46.93339 | 14654 ft | 398 kts | 163° |
| 2026-04-26 15:07 | 24.45801 | 46.94355 | 15158 ft | 402 kts | 164° |
| 2026-04-26 15:08 | 24.43148 | 46.95368 | 15663 ft | 405 kts | 164° |
| 2026-04-26 15:08 | 24.40470 | 46.96380 | 16156 ft | 409 kts | 164° |
| 2026-04-26 15:08 | 24.37763 | 46.97403 | 16642 ft | 413 kts | 164° |
| 2026-04-26 15:08 | 24.35033 | 46.98439 | 17146 ft | 417 kts | 164° |
| 2026-04-26 15:09 | 24.32280 | 46.99483 | 17643 ft | 421 kts | 164° |
| 2026-04-26 15:09 | 24.29505 | 47.00536 | 18130 ft | 425 kts | 164° |
| 2026-04-26 15:09 | 24.26699 | 47.01599 | 18563 ft | 428 kts | 165° |
| 2026-04-26 15:09 | 24.23878 | 47.02669 | 18995 ft | 430 kts | 165° |
| 2026-04-26 15:10 | 24.21042 | 47.03747 | 19442 ft | 433 kts | 165° |
| 2026-04-26 15:10 | 24.19154 | 47.04464 | 19735 ft | 434 kts | 165° |
| 2026-04-26 15:10 | 24.15329 | 47.05916 | 20308 ft | 436 kts | 165° |
| 2026-04-26 15:10 | 24.12463 | 47.07032 | 20733 ft | 439 kts | 162° |
| 2026-04-26 15:11 | 24.09705 | 47.08540 | 21140 ft | 447 kts | 153° |
| 2026-04-26 15:11 | 24.07057 | 47.10358 | 21532 ft | 450 kts | 153° |
| 2026-04-26 15:11 | 24.04402 | 47.12190 | 21915 ft | 452 kts | 153° |
| 2026-04-26 15:11 | 24.01733 | 47.14028 | 22272 ft | 454 kts | 153° |
| 2026-04-26 15:12 | 23.99084 | 47.15843 | 22624 ft | 456 kts | 153° |
| 2026-04-26 15:12 | 23.96396 | 47.17679 | 22971 ft | 458 kts | 154° |
| 2026-04-26 15:12 | 23.93682 | 47.19530 | 23312 ft | 460 kts | 154° |
| 2026-04-26 15:12 | 23.90963 | 47.21387 | 23621 ft | 462 kts | 154° |
| 2026-04-26 15:13 | 23.88228 | 47.23258 | 23880 ft | 465 kts | 154° |
| 2026-04-26 15:13 | 23.85477 | 47.25140 | 24107 ft | 467 kts | 154° |
| 2026-04-26 15:13 | 23.82719 | 47.27029 | 24338 ft | 470 kts | 154° |
| 2026-04-26 15:13 | 23.79938 | 47.28930 | 24578 ft | 472 kts | 154° |
| 2026-04-26 15:14 | 23.77144 | 47.30837 | 24756 ft | 476 kts | 153° |
| 2026-04-26 15:14 | 23.74329 | 47.32752 | 24965 ft | 478 kts | 153° |
| 2026-04-26 15:14 | 23.71496 | 47.34680 | 25181 ft | 481 kts | 153° |
| 2026-04-26 15:14 | 23.68646 | 47.36620 | 25392 ft | 483 kts | 153° |
| 2026-04-26 15:15 | 23.65784 | 47.38570 | 25597 ft | 486 kts | 153° |
| 2026-04-26 15:15 | 23.62911 | 47.40528 | 25806 ft | 488 kts | 153° |
| 2026-04-26 15:15 | 23.60029 | 47.42490 | 25994 ft | 490 kts | 153° |
| 2026-04-26 15:15 | 23.57124 | 47.44466 | 26178 ft | 492 kts | 153° |
| 2026-04-26 15:16 | 23.54217 | 47.46455 | 26354 ft | 496 kts | 151° |
| 2026-04-26 15:16 | 23.51499 | 47.48814 | 26522 ft | 505 kts | 140° |
| 2026-04-26 15:16 | 23.49164 | 47.51716 | 26691 ft | 514 kts | 129° |
| 2026-04-26 15:16 | 23.47316 | 47.55072 | 26843 ft | 521 kts | 118° |
| 2026-04-26 15:17 | 23.46029 | 47.58777 | 27003 ft | 526 kts | 107° |
| 2026-04-26 15:17 | 23.45522 | 47.61373 | 27159 ft | 528 kts | 99° |
| 2026-04-26 15:17 | 23.44981 | 47.66679 | 27478 ft | 528 kts | 96° |
| 2026-04-26 15:17 | 23.44600 | 47.70603 | 27701 ft | 528 kts | 96° |
| 2026-04-26 15:18 | 23.44214 | 47.74576 | 27938 ft | 527 kts | 96° |
| 2026-04-26 15:18 | 23.43824 | 47.78546 | 28180 ft | 527 kts | 96° |
| 2026-04-26 15:18 | 23.43430 | 47.82516 | 28415 ft | 528 kts | 96° |
| 2026-04-26 15:18 | 23.43030 | 47.86488 | 28656 ft | 528 kts | 96° |
| 2026-04-26 15:19 | 23.42632 | 47.90462 | 28891 ft | 528 kts | 96° |
| 2026-04-26 15:19 | 23.42235 | 47.94431 | 29123 ft | 528 kts | 96° |
| 2026-04-26 15:19 | 23.41838 | 47.98407 | 29355 ft | 528 kts | 96° |
| 2026-04-26 15:19 | 23.41441 | 48.02388 | 29600 ft | 529 kts | 96° |
| 2026-04-26 15:20 | 23.41045 | 48.06368 | 29808 ft | 530 kts | 96° |
| 2026-04-26 15:20 | 23.40648 | 48.10357 | 30020 ft | 530 kts | 96° |
| 2026-04-26 15:20 | 23.40248 | 48.14351 | 30224 ft | 530 kts | 96° |
| 2026-04-26 15:20 | 23.39843 | 48.18337 | 30434 ft | 530 kts | 96° |
| 2026-04-26 15:21 | 23.39432 | 48.22324 | 30643 ft | 530 kts | 96° |
| 2026-04-26 15:21 | 23.39024 | 48.26302 | 30885 ft | 528 kts | 96° |
| 2026-04-26 15:21 | 23.38618 | 48.30272 | 31135 ft | 527 kts | 96° |
| 2026-04-26 15:21 | 23.38215 | 48.34242 | 31372 ft | 526 kts | 95° |
| 2026-04-26 15:22 | 23.37901 | 48.38208 | 31587 ft | 526 kts | 93° |
| 2026-04-26 15:22 | 23.37704 | 48.42182 | 31809 ft | 526 kts | 91° |
| 2026-04-26 15:22 | 23.37586 | 48.46155 | 32040 ft | 525 kts | 90° |
| 2026-04-26 15:22 | 23.37501 | 48.50127 | 32270 ft | 525 kts | 90° |
| 2026-04-26 15:23 | 23.37410 | 48.54102 | 32495 ft | 525 kts | 91° |
| 2026-04-26 15:23 | 23.37292 | 48.58023 | 32718 ft | 525 kts | 91° |
| 2026-04-26 15:23 | 23.37144 | 48.61993 | 32943 ft | 525 kts | 92° |
| 2026-04-26 15:23 | 23.36973 | 48.65955 | 33171 ft | 525 kts | 92° |
| 2026-04-26 15:24 | 23.36793 | 48.69926 | 33401 ft | 525 kts | 92° |
| 2026-04-26 15:24 | 23.36612 | 48.73897 | 33629 ft | 525 kts | 92° |
| 2026-04-26 15:24 | 23.36433 | 48.77867 | 33857 ft | 525 kts | 92° |
| 2026-04-26 15:24 | 23.36260 | 48.81833 | 34065 ft | 525 kts | 92° |
| 2026-04-26 15:25 | 23.36090 | 48.85798 | 34269 ft | 524 kts | 91° |
| 2026-04-26 15:25 | 23.35979 | 48.88424 | 34395 ft | 524 kts | 91° |
| 2026-04-26 15:25 | 23.35757 | 48.93711 | 34717 ft | 522 kts | 91° |
| 2026-04-26 15:25 | 23.35592 | 48.97652 | 34858 ft | 522 kts | 91° |
| 2026-04-26 15:26 | 23.35244 | 49.05573 | 34893 ft | 525 kts | 92° |
| 2026-04-26 15:26 | 23.34850 | 49.13523 | 34895 ft | 526 kts | 92° |
| 2026-04-26 15:27 | 23.34422 | 49.21473 | 34887 ft | 526 kts | 92° |
| 2026-04-26 15:27 | 23.34002 | 49.29429 | 34892 ft | 526 kts | 92° |
| 2026-04-26 15:28 | 23.33587 | 49.37384 | 34898 ft | 527 kts | 92° |
| 2026-04-26 15:28 | 23.33172 | 49.45295 | 34892 ft | 527 kts | 92° |
| 2026-04-26 15:29 | 23.32745 | 49.53260 | 34893 ft | 528 kts | 92° |
| 2026-04-26 15:30 | 23.31864 | 49.69175 | 34910 ft | 527 kts | 92° |
| 2026-04-26 15:30 | 23.31420 | 49.77125 | 34908 ft | 526 kts | 92° |
| 2026-04-26 15:31 | 23.30773 | 49.89041 | 34915 ft | 525 kts | 92° |
| 2026-04-26 15:32 | 23.30169 | 49.99606 | 34907 ft | 525 kts | 92° |
| 2026-04-26 15:32 | 23.29629 | 50.08826 | 34913 ft | 525 kts | 92° |
| 2026-04-26 15:33 | 23.29172 | 50.16762 | 34920 ft | 525 kts | 92° |
| 2026-04-26 15:33 | 23.28711 | 50.24687 | 34907 ft | 525 kts | 92° |
| 2026-04-26 15:34 | 23.28246 | 50.32614 | 34915 ft | 525 kts | 92° |
| 2026-04-26 15:34 | 23.27782 | 50.40477 | 34922 ft | 524 kts | 92° |
| 2026-04-26 15:35 | 23.27313 | 50.48391 | 34924 ft | 524 kts | 92° |
| 2026-04-26 15:35 | 23.26835 | 50.56296 | 34917 ft | 523 kts | 92° |
| 2026-04-26 15:36 | 23.26353 | 50.64191 | 34925 ft | 523 kts | 92° |
| 2026-04-26 15:36 | 23.25871 | 50.72084 | 34918 ft | 523 kts | 92° |
| 2026-04-26 15:37 | 23.25389 | 50.79963 | 34918 ft | 522 kts | 92° |
| 2026-04-26 15:37 | 23.24893 | 50.87840 | 34913 ft | 522 kts | 92° |
| 2026-04-26 15:38 | 23.24393 | 50.95670 | 34909 ft | 522 kts | 92° |
| 2026-04-26 15:38 | 23.23897 | 51.03535 | 34913 ft | 521 kts | 92° |
| 2026-04-26 15:39 | 23.23399 | 51.11394 | 34914 ft | 521 kts | 92° |
| 2026-04-26 15:39 | 23.22977 | 51.17923 | 34914 ft | 520 kts | 92° |
| 2026-04-26 15:40 | 23.22379 | 51.27102 | 34909 ft | 520 kts | 92° |
| 2026-04-26 15:40 | 23.21868 | 51.34961 | 34908 ft | 520 kts | 92° |
| 2026-04-26 15:41 | 23.21352 | 51.42805 | 34907 ft | 520 kts | 92° |
| 2026-04-26 15:41 | 23.20827 | 51.50632 | 34906 ft | 520 kts | 92° |
| 2026-04-26 15:42 | 23.20303 | 51.58477 | 34912 ft | 520 kts | 92° |
| 2026-04-26 15:42 | 23.19782 | 51.66260 | 34896 ft | 520 kts | 92° |
| 2026-04-26 15:43 | 23.19249 | 51.74094 | 34912 ft | 519 kts | 92° |
| 2026-04-26 15:44 | 23.18443 | 51.85831 | 34918 ft | 519 kts | 92° |
| 2026-04-26 15:44 | 23.17627 | 51.97561 | 34910 ft | 518 kts | 92° |
| 2026-04-26 15:45 | 23.16807 | 52.09276 | 34906 ft | 518 kts | 92° |
| 2026-04-26 15:46 | 23.15971 | 52.20992 | 34903 ft | 518 kts | 92° |
| 2026-04-26 15:46 | 23.15508 | 52.27480 | 34898 ft | 518 kts | 92° |
| 2026-04-26 15:47 | 23.15063 | 52.40499 | 34903 ft | 513 kts | 79° |
| 2026-04-26 15:48 | 23.16820 | 52.47924 | 34901 ft | 506 kts | 66° |
| 2026-04-26 15:48 | 23.19582 | 52.54833 | 34903 ft | 498 kts | 55° |
| 2026-04-26 15:49 | 23.22977 | 52.61392 | 34900 ft | 498 kts | 55° |
| 2026-04-26 15:49 | 23.26369 | 52.67958 | 34900 ft | 498 kts | 55° |
| 2026-04-26 15:50 | 23.29753 | 52.74536 | 34900 ft | 498 kts | 56° |
| 2026-04-26 15:50 | 23.33135 | 52.81126 | 34903 ft | 498 kts | 55° |
| 2026-04-26 15:51 | 23.36513 | 52.87704 | 34909 ft | 498 kts | 55° |
| 2026-04-26 15:51 | 23.39891 | 52.94286 | 34904 ft | 498 kts | 56° |
| 2026-04-26 15:52 | 23.43301 | 53.00844 | 34902 ft | 497 kts | 54° |
| 2026-04-26 15:52 | 23.46774 | 53.07293 | 34905 ft | 496 kts | 54° |
| 2026-04-26 15:53 | 23.50277 | 53.13782 | 34900 ft | 496 kts | 54° |
| 2026-04-26 15:53 | 23.53744 | 53.20276 | 34901 ft | 496 kts | 54° |
| 2026-04-26 15:54 | 23.57203 | 53.26792 | 34906 ft | 496 kts | 54° |
| 2026-04-26 15:54 | 23.60658 | 53.33294 | 34901 ft | 496 kts | 54° |
| 2026-04-26 15:55 | 23.64117 | 53.39802 | 34892 ft | 496 kts | 54° |
| 2026-04-26 15:55 | 23.67566 | 53.46313 | 34886 ft | 496 kts | 54° |
| 2026-04-26 15:56 | 23.70429 | 53.51733 | 34882 ft | 495 kts | 54° |
| 2026-04-26 15:56 | 23.74452 | 53.59302 | 34881 ft | 495 kts | 54° |
| 2026-04-26 15:57 | 23.77923 | 53.65799 | 34879 ft | 496 kts | 54° |
| 2026-04-26 15:57 | 23.80814 | 53.71210 | 34877 ft | 496 kts | 54° |
| 2026-04-26 15:58 | 23.84275 | 53.77738 | 34880 ft | 497 kts | 54° |
| 2026-04-26 15:58 | 23.87737 | 53.84273 | 34879 ft | 497 kts | 54° |
| 2026-04-26 15:59 | 23.91204 | 53.90811 | 34876 ft | 497 kts | 54° |
| 2026-04-26 15:59 | 23.94670 | 53.97356 | 34877 ft | 497 kts | 54° |
| 2026-04-26 16:00 | 23.98137 | 54.03913 | 34882 ft | 497 kts | 54° |
| 2026-04-26 16:00 | 24.01584 | 54.10469 | 34879 ft | 498 kts | 54° |
| 2026-04-26 16:01 | 24.04992 | 54.17063 | 34879 ft | 498 kts | 55° |
| 2026-04-26 16:01 | 24.08378 | 54.23670 | 34879 ft | 498 kts | 55° |
| 2026-04-26 16:02 | 24.11768 | 54.30278 | 34889 ft | 497 kts | 55° |
| 2026-04-26 16:02 | 24.15210 | 54.36845 | 34873 ft | 495 kts | 51° |
| 2026-04-26 16:02 | 24.16486 | 54.38898 | 34730 ft | 491 kts | 47° |
| 2026-04-26 16:03 | 24.19412 | 54.42686 | 34423 ft | 483 kts | 39° |
| 2026-04-26 16:03 | 24.21859 | 54.45191 | 33720 ft | 481 kts | 33° |
| 2026-04-26 16:03 | 24.24498 | 54.47381 | 32510 ft | 484 kts | 27° |
| 2026-04-26 16:03 | 24.27412 | 54.49313 | 31408 ft | 484 kts | 22° |
| 2026-04-26 16:04 | 24.30406 | 54.50890 | 30566 ft | 481 kts | 18° |
| 2026-04-26 16:04 | 24.33525 | 54.52171 | 29784 ft | 476 kts | 12° |
| 2026-04-26 16:04 | 24.36702 | 54.53114 | 28966 ft | 470 kts | 7° |
| 2026-04-26 16:04 | 24.39911 | 54.53710 | 28099 ft | 465 kts | 1° |
| 2026-04-26 16:05 | 24.43114 | 54.53948 | 27356 ft | 458 kts | 356° |
| 2026-04-26 16:05 | 24.46272 | 54.53855 | 26673 ft | 451 kts | 351° |
| 2026-04-26 16:05 | 24.49365 | 54.53480 | 26011 ft | 445 kts | 348° |
| 2026-04-26 16:05 | 24.52428 | 54.53058 | 25388 ft | 442 kts | 348° |
| 2026-04-26 16:06 | 24.55466 | 54.52600 | 24772 ft | 438 kts | 347° |
| 2026-04-26 16:06 | 24.58469 | 54.52111 | 24171 ft | 435 kts | 347° |
| 2026-04-26 16:06 | 24.61453 | 54.51605 | 23583 ft | 432 kts | 346° |
| 2026-04-26 16:06 | 24.64415 | 54.51100 | 22934 ft | 429 kts | 347° |
| 2026-04-26 16:07 | 24.67369 | 54.50673 | 22302 ft | 429 kts | 353° |
| 2026-04-26 16:07 | 24.70361 | 54.50775 | 21566 ft | 434 kts | 4° |
| 2026-04-26 16:07 | 24.73315 | 54.51533 | 20835 ft | 440 kts | 16° |
| 2026-04-26 16:07 | 24.76101 | 54.52934 | 20229 ft | 441 kts | 28° |
| 2026-04-26 16:08 | 24.78674 | 54.54761 | 19671 ft | 439 kts | 31° |
| 2026-04-26 16:08 | 24.81217 | 54.56594 | 19132 ft | 435 kts | 31° |
| 2026-04-26 16:08 | 24.83745 | 54.58408 | 18629 ft | 431 kts | 31° |
| 2026-04-26 16:08 | 24.86254 | 54.60201 | 17857 ft | 447 kts | 31° |
| 2026-04-26 16:09 | 24.88883 | 54.62076 | 17067 ft | 451 kts | 31° |
| 2026-04-26 16:09 | 24.91511 | 54.63954 | 16335 ft | 449 kts | 31° |
| 2026-04-26 16:09 | 24.94106 | 54.65823 | 16001 ft | 444 kts | 32° |
| 2026-04-26 16:09 | 24.96690 | 54.67770 | 15845 ft | 443 kts | 33° |
| 2026-04-26 16:10 | 24.99169 | 54.69713 | 15891 ft | 444 kts | 34° |
| 2026-04-26 16:10 | 25.01672 | 54.71708 | 15886 ft | 444 kts | 34° |
| 2026-04-26 16:10 | 25.04169 | 54.73709 | 15887 ft | 444 kts | 34° |
| 2026-04-26 16:10 | 25.06671 | 54.75704 | 15862 ft | 443 kts | 34° |
| 2026-04-26 16:11 | 25.09155 | 54.77671 | 15328 ft | 437 kts | 34° |
| 2026-04-26 16:11 | 25.11620 | 54.79608 | 14724 ft | 432 kts | 33° |
| 2026-04-26 16:11 | 25.14066 | 54.81522 | 14144 ft | 427 kts | 33° |
| 2026-04-26 16:11 | 25.16464 | 54.83437 | 13579 ft | 423 kts | 35° |
| 2026-04-26 16:12 | 25.18735 | 54.85472 | 12961 ft | 420 kts | 42° |
| 2026-04-26 16:12 | 25.20535 | 54.87995 | 12533 ft | 415 kts | 58° |
| 2026-04-26 16:12 | 25.21958 | 54.93910 | 12033 ft | 392 kts | 91° |
| 2026-04-26 16:13 | 25.21569 | 54.96846 | 11795 ft | 383 kts | 102° |
| 2026-04-26 16:13 | 25.20978 | 54.99701 | 11555 ft | 380 kts | 102° |
| 2026-04-26 16:13 | 25.20390 | 55.02540 | 11322 ft | 379 kts | 102° |
| 2026-04-26 16:13 | 25.19812 | 55.05335 | 11089 ft | 378 kts | 102° |
| 2026-04-26 16:14 | 25.19226 | 55.08196 | 10853 ft | 376 kts | 102° |
| 2026-04-26 16:14 | 25.18647 | 55.11010 | 10617 ft | 375 kts | 102° |
| 2026-04-26 16:14 | 25.17503 | 55.16558 | 10152 ft | 375 kts | 102° |
| 2026-04-26 16:15 | 25.16928 | 55.19338 | 9930 ft | 366 kts | 102° |
| 2026-04-26 16:15 | 25.16373 | 55.22019 | 9812 ft | 351 kts | 102° |
| 2026-04-26 16:15 | 25.15839 | 55.24594 | 9683 ft | 337 kts | 102° |
| 2026-04-26 16:16 | 25.14833 | 55.29461 | 9418 ft | 314 kts | 101° |
| 2026-04-26 16:16 | 25.14350 | 55.31791 | 9128 ft | 309 kts | 101° |
| 2026-04-26 16:16 | 25.13872 | 55.34104 | 8767 ft | 307 kts | 101° |
| 2026-04-26 16:16 | 25.13396 | 55.36401 | 8384 ft | 306 kts | 101° |
| 2026-04-26 16:17 | 25.12921 | 55.38686 | 8003 ft | 305 kts | 101° |
| 2026-04-26 16:17 | 25.12447 | 55.40955 | 7623 ft | 303 kts | 101° |
| 2026-04-26 16:17 | 25.11974 | 55.43220 | 7249 ft | 302 kts | 101° |
| 2026-04-26 16:17 | 25.11465 | 55.45461 | 6876 ft | 301 kts | 105° |
| 2026-04-26 16:18 | 25.10731 | 55.47584 | 6503 ft | 300 kts | 113° |
| 2026-04-26 16:18 | 25.08634 | 55.51559 | 5716 ft | 298 kts | 121° |
| 2026-04-26 16:19 | 25.06464 | 55.55436 | 4889 ft | 294 kts | 121° |
| 2026-04-26 16:19 | 25.05536 | 55.57424 | 4231 ft | 290 kts | 104° |
| 2026-04-26 16:19 | 25.05861 | 55.60936 | 3392 ft | 272 kts | 54° |
| 2026-04-26 16:20 | 25.07530 | 55.62783 | 3194 ft | 244 kts | 28° |
| 2026-04-26 16:20 | 25.10471 | 55.62777 | 2462 ft | 216 kts | 317° |
| 2026-04-26 16:20 | 25.11383 | 55.61485 | 2086 ft | 215 kts | 299° |
| 2026-04-26 16:21 | 25.12155 | 55.60067 | 2024 ft | 217 kts | 300° |
| 2026-04-26 16:21 | 25.12940 | 55.58641 | 2027 ft | 216 kts | 300° |
| 2026-04-26 16:21 | 25.13697 | 55.57281 | 2023 ft | 200 kts | 300° |
| 2026-04-26 16:21 | 25.14395 | 55.56029 | 2021 ft | 185 kts | 300° |
| 2026-04-26 16:22 | 25.15058 | 55.54839 | 2027 ft | 179 kts | 300° |
| 2026-04-26 16:22 | 25.15708 | 55.53671 | 2030 ft | 177 kts | 300° |
| 2026-04-26 16:22 | 25.16352 | 55.52514 | 2031 ft | 177 kts | 300° |
| 2026-04-26 16:22 | 25.16994 | 55.51359 | 2038 ft | 175 kts | 300° |
| 2026-04-26 16:23 | 25.17602 | 55.50268 | 2050 ft | 162 kts | 301° |
| 2026-04-26 16:23 | 25.18186 | 55.49218 | 1952 ft | 159 kts | 300° |
| 2026-04-26 16:23 | 25.18759 | 55.48188 | 1781 ft | 156 kts | 300° |
| 2026-04-26 16:23 | 25.19321 | 55.47177 | 1596 ft | 151 kts | 300° |
| 2026-04-26 16:24 | 25.19849 | 55.46228 | 1425 ft | 142 kts | 300° |
| 2026-04-26 16:24 | 25.20353 | 55.45322 | 1256 ft | 140 kts | 300° |
| 2026-04-26 16:24 | 25.20863 | 55.44402 | 1068 ft | 138 kts | 300° |
| 2026-04-26 16:24 | 25.21355 | 55.43515 | 905 ft | 137 kts | 300° |
| 2026-04-26 16:25 | 25.21856 | 55.42615 | 763 ft | 139 kts | 300° |
| 2026-04-26 16:25 | 25.22363 | 55.41706 | 577 ft | 139 kts | 299° |
| 2026-04-26 16:25 | 25.22865 | 55.40804 | 380 ft | 137 kts | 300° |
| 2026-04-26 16:25 | 25.23363 | 55.39910 | 204 ft | 137 kts | 300° |
| 2026-04-26 16:26 | 25.23850 | 55.39028 | 84 ft | 126 kts | 300° |
| 2026-04-26 16:26 | 25.24139 | 55.38509 | 52 ft | 105 kts | 301° |
| 2026-04-26 16:26 | 25.24481 | 55.37891 | 43 ft | 42 kts | 301° |
| 2026-04-26 16:26 | 25.24599 | 55.37647 | 38 ft | 32 kts | 285° |
| 2026-04-26 16:27 | 25.24618 | 55.37474 | 35 ft | 20 kts | 273° |
| 2026-04-26 16:27 | 25.24622 | 55.37345 | 33 ft | 10 kts | 271° |
| 2026-04-26 16:27 | 25.24630 | 55.37272 | 31 ft | 11 kts | 287° |
| 2026-04-26 16:27 | 25.24667 | 55.37193 | 30 ft | 9 kts | 299° |
| 2026-04-26 16:28 | 25.24704 | 55.37124 | 28 ft | 10 kts | 300° |
| 2026-04-26 16:28 | 25.24742 | 55.37058 | 27 ft | 12 kts | 303° |
| 2026-04-26 16:28 | 25.24792 | 55.36972 | 26 ft | 15 kts | 302° |
| 2026-04-26 16:28 | 25.24847 | 55.36862 | 24 ft | 18 kts | 291° |
| 2026-04-26 16:29 | 25.24868 | 55.36770 | 24 ft | 10 kts | 278° |
| 2026-04-26 16:29 | 25.24888 | 55.36684 | 22 ft | 13 kts | 293° |
| 2026-04-26 16:29 | 25.24935 | 55.36590 | 22 ft | 15 kts | 301° |
| 2026-04-26 16:29 | 25.24993 | 55.36485 | 22 ft | 17 kts | 302° |
| 2026-04-26 16:30 | 25.25057 | 55.36370 | 24 ft | 16 kts | 301° |
| 2026-04-26 16:30 | 25.25099 | 55.36294 | 24 ft | 12 kts | 302° |
| 2026-04-26 16:30 | 25.25146 | 55.36208 | 23 ft | 14 kts | 301° |
| 2026-04-26 16:30 | 25.25201 | 55.36110 | 23 ft | 16 kts | 301° |
| 2026-04-26 16:31 | 25.25256 | 55.36011 | 22 ft | 10 kts | 302° |
| 2026-04-26 16:31 | 25.25264 | 55.35997 | 23 ft | 0 kts | 302° |
| 2026-04-26 16:34 | 25.25265 | 55.35995 | 22 ft | 2 kts | 302° |
| 2026-04-26 16:34 | 25.25286 | 55.35958 | 22 ft | 9 kts | 302° |
| 2026-04-26 16:34 | 25.25332 | 55.35874 | 23 ft | 14 kts | 301° |
| 2026-04-26 16:35 | 25.25386 | 55.35774 | 24 ft | 16 kts | 301° |
| 2026-04-26 16:35 | 25.25448 | 55.35662 | 22 ft | 18 kts | 303° |
| 2026-04-26 16:35 | 25.25518 | 55.35539 | 22 ft | 20 kts | 302° |
| 2026-04-26 16:35 | 25.25593 | 55.35404 | 23 ft | 21 kts | 301° |
| 2026-04-26 16:36 | 25.25672 | 55.35258 | 21 ft | 23 kts | 301° |
| 2026-04-26 16:36 | 25.25756 | 55.35105 | 21 ft | 24 kts | 301° |
| 2026-04-26 16:36 | 25.25844 | 55.34944 | 20 ft | 25 kts | 302° |
| 2026-04-26 16:36 | 25.25936 | 55.34777 | 22 ft | 26 kts | 301° |
| 2026-04-26 16:37 | 25.26032 | 55.34604 | 22 ft | 27 kts | 301° |
| 2026-04-26 16:37 | 25.26097 | 55.34487 | 20 ft | 15 kts | 302° |
| 2026-04-26 16:37 | 25.26155 | 55.34382 | 21 ft | 17 kts | 301° |
| 2026-04-26 16:37 | 25.26197 | 55.34306 | 21 ft | 18 kts | 301° |
| 2026-04-26 16:38 | 25.26247 | 55.34216 | 19 ft | 5 kts | 303° |
| 2026-04-26 16:38 | 25.26265 | 55.34179 | 19 ft | 6 kts | 282° |
| 2026-04-26 16:38 | 25.26238 | 55.34153 | 19 ft | 5 kts | 190° |
| 2026-04-26 16:38 | 25.26201 | 55.34147 | 19 ft | 7 kts | 188° |
| 2026-04-26 16:39 | 25.26159 | 55.34140 | 19 ft | 6 kts | 189° |
| 2026-04-26 16:39 | 25.26124 | 55.34133 | 19 ft | 5 kts | 189° |
| 2026-04-26 16:39 | 25.26096 | 55.34128 | 21 ft | 4 kts | 189° |
| 2026-04-26 16:39 | 25.26077 | 55.34125 | 19 ft | 2 kts | 189° |
| 2026-04-26 16:40 | 25.26075 | 55.34124 | 19 ft | 0 kts | 189° |